sensor_id;sensor_type;location;lat;lon;timestamp;P1;durP1;ratioP1;P2;durP2;ratioP2
359;SDS011;168;48.872;9.226;2023-08-30T00:00:15;22.83;;;20.67;;
359;SDS011;168;48.872;9.226;2023-08-30T00:02:43;20.37;;;18.47;;
359;SDS011;168;48.872;9.226;2023-08-30T00:05:10;21.23;;;19.20;;
359;SDS011;168;48.872;9.226;2023-08-30T00:07:39;21.10;;;19.27;;
359;SDS011;168;48.872;9.226;2023-08-30T00:10:07;21.30;;;19.43;;
359;SDS011;168;48.872;9.226;2023-08-30T00:12:37;19.83;;;18.03;;
359;SDS011;168;48.872;9.226;2023-08-30T00:15:05;19.93;;;18.20;;
359;SDS011;168;48.872;9.226;2023-08-30T00:17:33;19.30;;;17.57;;
359;SDS011;168;48.872;9.226;2023-08-30T00:20:01;19.03;;;17.40;;
359;SDS011;168;48.872;9.226;2023-08-30T00:22:29;19.60;;;17.80;;
359;SDS011;168;48.872;9.226;2023-08-30T00:24:58;18.80;;;17.20;;
359;SDS011;168;48.872;9.226;2023-08-30T00:27:25;18.00;;;16.50;;
359;SDS011;168;48.872;9.226;2023-08-30T00:29:52;17.47;;;16.03;;
359;SDS011;168;48.872;9.226;2023-08-30T00:32:22;17.20;;;15.80;;
359;SDS011;168;48.872;9.226;2023-08-30T00:34:52;18.60;;;17.00;;
359;SDS011;168;48.872;9.226;2023-08-30T00:37:26;17.73;;;16.23;;
359;SDS011;168;48.872;9.226;2023-08-30T00:40:02;18.10;;;16.53;;
359;SDS011;168;48.872;9.226;2023-08-30T00:42:32;19.30;;;17.70;;
359;SDS011;168;48.872;9.226;2023-08-30T00:45:00;18.30;;;16.70;;
359;SDS011;168;48.872;9.226;2023-08-30T00:47:27;20.60;;;18.80;;
359;SDS011;168;48.872;9.226;2023-08-30T00:49:55;18.77;;;17.07;;
359;SDS011;168;48.872;9.226;2023-08-30T00:52:28;19.33;;;17.73;;
359;SDS011;168;48.872;9.226;2023-08-30T00:54:58;19.30;;;17.47;;
359;SDS011;168;48.872;9.226;2023-08-30T00:57:29;19.50;;;17.80;;
359;SDS011;168;48.872;9.226;2023-08-30T00:59:58;18.53;;;16.83;;
359;SDS011;168;48.872;9.226;2023-08-30T01:02:27;19.33;;;17.63;;
359;SDS011;168;48.872;9.226;2023-08-30T01:04:56;18.00;;;16.50;;
359;SDS011;168;48.872;9.226;2023-08-30T01:07:24;19.30;;;17.70;;
359;SDS011;168;48.872;9.226;2023-08-30T01:09:58;19.70;;;17.90;;
359;SDS011;168;48.872;9.226;2023-08-30T01:12:29;20.63;;;18.73;;
359;SDS011;168;48.872;9.226;2023-08-30T01:15:03;20.13;;;18.37;;
359;SDS011;168;48.872;9.226;2023-08-30T01:17:36;21.50;;;19.50;;
359;SDS011;168;48.872;9.226;2023-08-30T01:20:07;20.93;;;19.07;;
359;SDS011;168;48.872;9.226;2023-08-30T01:22:42;19.93;;;17.97;;
359;SDS011;168;48.872;9.226;2023-08-30T01:25:30;19.13;;;17.43;;
359;SDS011;168;48.872;9.226;2023-08-30T01:28:06;19.00;;;17.40;;
359;SDS011;168;48.872;9.226;2023-08-30T01:30:35;20.30;;;18.60;;
359;SDS011;168;48.872;9.226;2023-08-30T01:33:08;21.67;;;19.80;;
359;SDS011;168;48.872;9.226;2023-08-30T01:35:37;19.53;;;17.73;;
359;SDS011;168;48.872;9.226;2023-08-30T01:38:06;18.53;;;16.90;;
359;SDS011;168;48.872;9.226;2023-08-30T01:40:35;19.07;;;17.47;;
359;SDS011;168;48.872;9.226;2023-08-30T01:43:09;18.77;;;17.03;;
359;SDS011;168;48.872;9.226;2023-08-30T01:45:38;19.50;;;17.80;;
359;SDS011;168;48.872;9.226;2023-08-30T01:48:09;19.80;;;18.10;;
359;SDS011;168;48.872;9.226;2023-08-30T01:50:39;19.23;;;17.53;;
359;SDS011;168;48.872;9.226;2023-08-30T01:53:07;17.47;;;15.90;;
359;SDS011;168;48.872;9.226;2023-08-30T01:55:37;19.23;;;17.47;;
359;SDS011;168;48.872;9.226;2023-08-30T01:58:11;19.70;;;18.00;;
359;SDS011;168;48.872;9.226;2023-08-30T02:00:38;19.57;;;17.80;;
359;SDS011;168;48.872;9.226;2023-08-30T02:03:09;19.83;;;17.93;;
359;SDS011;168;48.872;9.226;2023-08-30T02:05:39;20.30;;;18.40;;
359;SDS011;168;48.872;9.226;2023-08-30T02:08:14;20.40;;;18.60;;
359;SDS011;168;48.872;9.226;2023-08-30T02:10:48;20.40;;;18.50;;
359;SDS011;168;48.872;9.226;2023-08-30T02:13:21;19.83;;;18.13;;
359;SDS011;168;48.872;9.226;2023-08-30T02:15:55;20.30;;;18.50;;
359;SDS011;168;48.872;9.226;2023-08-30T02:18:27;20.90;;;19.00;;
359;SDS011;168;48.872;9.226;2023-08-30T02:20:56;19.53;;;17.73;;
359;SDS011;168;48.872;9.226;2023-08-30T02:23:28;20.57;;;18.57;;
359;SDS011;168;48.872;9.226;2023-08-30T02:25:55;21.00;;;19.10;;
359;SDS011;168;48.872;9.226;2023-08-30T02:28:26;20.63;;;18.67;;
359;SDS011;168;48.872;9.226;2023-08-30T02:30:55;19.97;;;18.27;;
359;SDS011;168;48.872;9.226;2023-08-30T02:33:23;19.23;;;17.53;;
359;SDS011;168;48.872;9.226;2023-08-30T02:35:51;19.30;;;17.60;;
359;SDS011;168;48.872;9.226;2023-08-30T02:38:25;19.97;;;18.20;;
359;SDS011;168;48.872;9.226;2023-08-30T02:40:54;17.03;;;15.60;;
359;SDS011;168;48.872;9.226;2023-08-30T02:43:22;17.87;;;16.27;;
359;SDS011;168;48.872;9.226;2023-08-30T02:45:51;18.77;;;16.90;;
359;SDS011;168;48.872;9.226;2023-08-30T02:48:18;18.80;;;17.13;;
359;SDS011;168;48.872;9.226;2023-08-30T02:50:45;17.53;;;16.03;;
359;SDS011;168;48.872;9.226;2023-08-30T02:53:21;18.43;;;16.63;;
359;SDS011;168;48.872;9.226;2023-08-30T02:55:48;17.93;;;16.37;;
359;SDS011;168;48.872;9.226;2023-08-30T02:58:17;18.87;;;17.33;;
359;SDS011;168;48.872;9.226;2023-08-30T03:00:48;18.20;;;16.40;;
359;SDS011;168;48.872;9.226;2023-08-30T03:03:17;19.33;;;17.60;;
359;SDS011;168;48.872;9.226;2023-08-30T03:05:46;19.80;;;17.97;;
359;SDS011;168;48.872;9.226;2023-08-30T03:08:18;19.30;;;17.60;;
359;SDS011;168;48.872;9.226;2023-08-30T03:10:45;19.37;;;17.77;;
359;SDS011;168;48.872;9.226;2023-08-30T03:13:17;20.70;;;18.80;;
359;SDS011;168;48.872;9.226;2023-08-30T03:15:47;19.57;;;17.77;;
359;SDS011;168;48.872;9.226;2023-08-30T03:18:20;21.20;;;19.20;;
359;SDS011;168;48.872;9.226;2023-08-30T03:20:47;20.83;;;18.90;;
359;SDS011;168;48.872;9.226;2023-08-30T03:23:15;21.40;;;19.47;;
359;SDS011;168;48.872;9.226;2023-08-30T03:25:48;20.47;;;18.67;;
359;SDS011;168;48.872;9.226;2023-08-30T03:28:17;20.37;;;18.47;;
359;SDS011;168;48.872;9.226;2023-08-30T03:30:44;22.10;;;20.00;;
359;SDS011;168;48.872;9.226;2023-08-30T03:33:14;21.20;;;19.17;;
359;SDS011;168;48.872;9.226;2023-08-30T03:35:48;20.70;;;18.90;;
359;SDS011;168;48.872;9.226;2023-08-30T03:38:21;20.93;;;19.03;;
359;SDS011;168;48.872;9.226;2023-08-30T03:40:52;20.17;;;18.37;;
359;SDS011;168;48.872;9.226;2023-08-30T03:43:21;21.40;;;19.20;;
359;SDS011;168;48.872;9.226;2023-08-30T03:45:49;20.37;;;18.47;;
359;SDS011;168;48.872;9.226;2023-08-30T03:48:18;22.00;;;19.80;;
359;SDS011;168;48.872;9.226;2023-08-30T03:50:49;22.10;;;20.10;;
359;SDS011;168;48.872;9.226;2023-08-30T03:53:16;21.03;;;19.10;;
359;SDS011;168;48.872;9.226;2023-08-30T03:55:43;21.50;;;19.50;;
359;SDS011;168;48.872;9.226;2023-08-30T03:58:11;21.57;;;19.60;;
359;SDS011;168;48.872;9.226;2023-08-30T04:00:39;21.20;;;19.30;;
359;SDS011;168;48.872;9.226;2023-08-30T04:03:07;21.37;;;19.47;;
359;SDS011;168;48.872;9.226;2023-08-30T04:05:37;20.17;;;18.23;;
359;SDS011;168;48.872;9.226;2023-08-30T04:08:06;21.07;;;19.07;;
359;SDS011;168;48.872;9.226;2023-08-30T04:10:36;21.30;;;19.30;;
359;SDS011;168;48.872;9.226;2023-08-30T04:13:05;21.43;;;19.47;;
359;SDS011;168;48.872;9.226;2023-08-30T04:15:34;20.83;;;18.90;;
359;SDS011;168;48.872;9.226;2023-08-30T04:18:05;22.60;;;20.50;;
359;SDS011;168;48.872;9.226;2023-08-30T04:20:35;20.50;;;18.70;;
359;SDS011;168;48.872;9.226;2023-08-30T04:23:06;20.87;;;19.00;;
359;SDS011;168;48.872;9.226;2023-08-30T04:25:34;20.50;;;18.60;;
359;SDS011;168;48.872;9.226;2023-08-30T04:28:03;19.93;;;18.13;;
359;SDS011;168;48.872;9.226;2023-08-30T04:30:35;20.83;;;18.93;;
359;SDS011;168;48.872;9.226;2023-08-30T04:33:08;20.17;;;18.27;;
359;SDS011;168;48.872;9.226;2023-08-30T04:35:36;19.57;;;17.83;;
359;SDS011;168;48.872;9.226;2023-08-30T04:38:05;19.60;;;17.80;;
359;SDS011;168;48.872;9.226;2023-08-30T04:40:33;20.13;;;18.20;;
359;SDS011;168;48.872;9.226;2023-08-30T04:43:00;19.73;;;17.93;;
359;SDS011;168;48.872;9.226;2023-08-30T04:45:28;19.50;;;17.70;;
359;SDS011;168;48.872;9.226;2023-08-30T04:47:55;18.83;;;17.07;;
359;SDS011;168;48.872;9.226;2023-08-30T04:50:24;18.37;;;16.70;;
359;SDS011;168;48.872;9.226;2023-08-30T04:53:08;19.00;;;17.30;;
359;SDS011;168;48.872;9.226;2023-08-30T04:55:36;20.67;;;18.67;;
359;SDS011;168;48.872;9.226;2023-08-30T04:58:03;20.43;;;18.63;;
359;SDS011;168;48.872;9.226;2023-08-30T05:00:30;19.53;;;17.70;;
359;SDS011;168;48.872;9.226;2023-08-30T05:02:58;17.90;;;16.40;;
359;SDS011;168;48.872;9.226;2023-08-30T05:05:25;19.80;;;18.20;;
359;SDS011;168;48.872;9.226;2023-08-30T05:07:53;18.53;;;16.77;;
359;SDS011;168;48.872;9.226;2023-08-30T05:10:21;18.80;;;17.10;;
359;SDS011;168;48.872;9.226;2023-08-30T05:12:49;18.70;;;17.10;;
359;SDS011;168;48.872;9.226;2023-08-30T05:15:17;19.37;;;17.57;;
359;SDS011;168;48.872;9.226;2023-08-30T05:17:45;18.87;;;17.23;;
359;SDS011;168;48.872;9.226;2023-08-30T05:20:12;19.27;;;17.53;;
359;SDS011;168;48.872;9.226;2023-08-30T05:22:40;18.20;;;16.60;;
359;SDS011;168;48.872;9.226;2023-08-30T05:25:07;19.53;;;17.63;;
359;SDS011;168;48.872;9.226;2023-08-30T05:27:36;17.63;;;16.03;;
359;SDS011;168;48.872;9.226;2023-08-30T05:30:04;17.43;;;15.83;;
359;SDS011;168;48.872;9.226;2023-08-30T05:32:32;17.67;;;16.03;;
359;SDS011;168;48.872;9.226;2023-08-30T05:35:00;17.67;;;16.17;;
359;SDS011;168;48.872;9.226;2023-08-30T05:37:27;17.17;;;15.67;;
359;SDS011;168;48.872;9.226;2023-08-30T05:39:54;18.73;;;17.03;;
359;SDS011;168;48.872;9.226;2023-08-30T05:42:23;17.47;;;15.87;;
359;SDS011;168;48.872;9.226;2023-08-30T05:44:52;18.07;;;16.47;;
359;SDS011;168;48.872;9.226;2023-08-30T05:47:20;17.67;;;16.07;;
359;SDS011;168;48.872;9.226;2023-08-30T05:49:47;16.40;;;14.87;;
359;SDS011;168;48.872;9.226;2023-08-30T05:52:15;19.43;;;17.67;;
359;SDS011;168;48.872;9.226;2023-08-30T05:54:43;17.90;;;16.30;;
359;SDS011;168;48.872;9.226;2023-08-30T05:57:11;19.57;;;17.70;;
359;SDS011;168;48.872;9.226;2023-08-30T05:59:38;19.07;;;17.37;;
359;SDS011;168;48.872;9.226;2023-08-30T06:02:18;17.30;;;15.63;;
359;SDS011;168;48.872;9.226;2023-08-30T06:05:19;17.67;;;16.00;;
359;SDS011;168;48.872;9.226;2023-08-30T06:07:47;17.73;;;16.13;;
359;SDS011;168;48.872;9.226;2023-08-30T06:10:14;18.47;;;16.87;;
359;SDS011;168;48.872;9.226;2023-08-30T06:45:18;16.33;;;14.80;;
359;SDS011;168;48.872;9.226;2023-08-30T06:48:44;16.07;;;14.47;;
359;SDS011;168;48.872;9.226;2023-08-30T06:52:04;15.13;;;13.80;;
359;SDS011;168;48.872;9.226;2023-08-30T07:05:45;11.77;;;10.77;;
359;SDS011;168;48.872;9.226;2023-08-30T07:12:34;12.73;;;11.63;;
359;SDS011;168;48.872;9.226;2023-08-30T07:19:02;11.80;;;10.80;;
359;SDS011;168;48.872;9.226;2023-08-30T07:22:01;11.07;;;10.10;;
359;SDS011;168;48.872;9.226;2023-08-30T07:39:48;10.80;;;9.90;;
359;SDS011;168;48.872;9.226;2023-08-30T07:42:17;10.70;;;9.80;;
359;SDS011;168;48.872;9.226;2023-08-30T07:44:45;11.90;;;10.80;;
359;SDS011;168;48.872;9.226;2023-08-30T07:47:26;10.60;;;9.70;;
359;SDS011;168;48.872;9.226;2023-08-30T07:49:55;10.37;;;9.43;;
359;SDS011;168;48.872;9.226;2023-08-30T07:52:32;9.30;;;8.60;;
359;SDS011;168;48.872;9.226;2023-08-30T07:55:05;8.63;;;7.67;;
359;SDS011;168;48.872;9.226;2023-08-30T07:57:38;9.33;;;8.53;;
359;SDS011;168;48.872;9.226;2023-08-30T08:00:06;8.90;;;8.20;;
359;SDS011;168;48.872;9.226;2023-08-30T08:02:35;8.93;;;8.23;;
359;SDS011;168;48.872;9.226;2023-08-30T08:05:08;9.00;;;8.30;;
359;SDS011;168;48.872;9.226;2023-08-30T08:07:38;7.60;;;7.00;;
359;SDS011;168;48.872;9.226;2023-08-30T08:10:09;8.93;;;8.30;;
359;SDS011;168;48.872;9.226;2023-08-30T08:12:44;7.50;;;6.90;;
359;SDS011;168;48.872;9.226;2023-08-30T08:15:23;8.00;;;7.40;;
359;SDS011;168;48.872;9.226;2023-08-30T08:17:50;7.93;;;7.33;;
359;SDS011;168;48.872;9.226;2023-08-30T08:20:18;10.37;;;9.47;;
359;SDS011;168;48.872;9.226;2023-08-30T08:22:47;10.27;;;9.30;;
359;SDS011;168;48.872;9.226;2023-08-30T08:25:14;10.53;;;9.57;;
359;SDS011;168;48.872;9.226;2023-08-30T08:27:43;11.23;;;10.33;;
359;SDS011;168;48.872;9.226;2023-08-30T08:30:14;10.30;;;9.30;;
359;SDS011;168;48.872;9.226;2023-08-30T08:35:12;9.50;;;8.70;;
359;SDS011;168;48.872;9.226;2023-08-30T08:37:42;8.53;;;7.90;;
359;SDS011;168;48.872;9.226;2023-08-30T08:40:12;10.33;;;8.50;;
359;SDS011;168;48.872;9.226;2023-08-30T08:42:42;7.73;;;7.03;;
359;SDS011;168;48.872;9.226;2023-08-30T08:45:10;7.63;;;6.93;;
359;SDS011;168;48.872;9.226;2023-08-30T08:47:38;8.33;;;7.63;;
359;SDS011;168;48.872;9.226;2023-08-30T08:50:06;9.20;;;8.43;;
359;SDS011;168;48.872;9.226;2023-08-30T08:52:36;7.77;;;7.17;;
359;SDS011;168;48.872;9.226;2023-08-30T08:55:07;7.97;;;7.27;;
359;SDS011;168;48.872;9.226;2023-08-30T08:57:39;8.73;;;8.00;;
359;SDS011;168;48.872;9.226;2023-08-30T09:00:09;8.00;;;7.30;;
359;SDS011;168;48.872;9.226;2023-08-30T09:02:38;7.47;;;6.70;;
359;SDS011;168;48.872;9.226;2023-08-30T09:05:07;7.70;;;6.90;;
359;SDS011;168;48.872;9.226;2023-08-30T09:07:35;6.87;;;6.27;;
359;SDS011;168;48.872;9.226;2023-08-30T09:10:06;6.57;;;6.07;;
359;SDS011;168;48.872;9.226;2023-08-30T09:12:34;7.67;;;6.97;;
359;SDS011;168;48.872;9.226;2023-08-30T09:15:06;7.17;;;6.47;;
359;SDS011;168;48.872;9.226;2023-08-30T09:17:37;8.17;;;6.50;;
359;SDS011;168;48.872;9.226;2023-08-30T09:20:06;7.07;;;6.47;;
359;SDS011;168;48.872;9.226;2023-08-30T09:22:38;8.10;;;6.87;;
359;SDS011;168;48.872;9.226;2023-08-30T09:25:07;6.73;;;6.00;;
359;SDS011;168;48.872;9.226;2023-08-30T09:27:37;8.23;;;6.27;;
359;SDS011;168;48.872;9.226;2023-08-30T09:30:08;8.50;;;6.60;;
359;SDS011;168;48.872;9.226;2023-08-30T09:32:40;7.60;;;5.00;;
359;SDS011;168;48.872;9.226;2023-08-30T09:35:18;5.43;;;4.93;;
359;SDS011;168;48.872;9.226;2023-08-30T09:37:45;6.73;;;6.13;;
359;SDS011;168;48.872;9.226;2023-08-30T09:40:18;6.33;;;5.30;;
359;SDS011;168;48.872;9.226;2023-08-30T09:42:45;6.00;;;5.50;;
359;SDS011;168;48.872;9.226;2023-08-30T09:45:21;6.00;;;5.50;;
359;SDS011;168;48.872;9.226;2023-08-30T09:47:49;5.50;;;5.00;;
359;SDS011;168;48.872;9.226;2023-08-30T09:50:17;6.20;;;5.70;;
359;SDS011;168;48.872;9.226;2023-08-30T09:52:55;5.70;;;5.20;;
359;SDS011;168;48.872;9.226;2023-08-30T09:55:23;5.13;;;4.70;;
359;SDS011;168;48.872;9.226;2023-08-30T09:57:51;5.43;;;4.93;;
359;SDS011;168;48.872;9.226;2023-08-30T10:00:21;5.03;;;4.57;;
359;SDS011;168;48.872;9.226;2023-08-30T10:02:49;5.23;;;4.73;;
359;SDS011;168;48.872;9.226;2023-08-30T10:05:16;5.30;;;4.80;;
359;SDS011;168;48.872;9.226;2023-08-30T10:07:45;4.70;;;4.30;;
359;SDS011;168;48.872;9.226;2023-08-30T10:10:13;5.50;;;5.00;;
359;SDS011;168;48.872;9.226;2023-08-30T10:12:42;6.23;;;4.37;;
359;SDS011;168;48.872;9.226;2023-08-30T10:15:13;6.73;;;4.53;;
359;SDS011;168;48.872;9.226;2023-08-30T10:17:50;4.57;;;4.17;;
359;SDS011;168;48.872;9.226;2023-08-30T10:20:29;5.43;;;4.50;;
359;SDS011;168;48.872;9.226;2023-08-30T10:23:02;4.43;;;4.13;;
359;SDS011;168;48.872;9.226;2023-08-30T10:25:34;5.90;;;5.13;;
359;SDS011;168;48.872;9.226;2023-08-30T10:28:03;4.57;;;4.17;;
359;SDS011;168;48.872;9.226;2023-08-30T10:30:40;5.47;;;3.70;;
359;SDS011;168;48.872;9.226;2023-08-30T10:33:13;3.60;;;3.23;;
359;SDS011;168;48.872;9.226;2023-08-30T10:35:47;3.83;;;3.07;;
359;SDS011;168;48.872;9.226;2023-08-30T10:38:26;4.10;;;3.70;;
359;SDS011;168;48.872;9.226;2023-08-30T10:40:54;4.10;;;3.30;;
359;SDS011;168;48.872;9.226;2023-08-30T10:43:28;4.20;;;3.90;;
359;SDS011;168;48.872;9.226;2023-08-30T10:46:00;3.87;;;3.57;;
359;SDS011;168;48.872;9.226;2023-08-30T10:48:36;4.13;;;3.83;;
359;SDS011;168;48.872;9.226;2023-08-30T10:51:05;3.97;;;3.50;;
359;SDS011;168;48.872;9.226;2023-08-30T10:53:42;4.40;;;3.77;;
359;SDS011;168;48.872;9.226;2023-08-30T10:56:10;4.07;;;3.73;;
359;SDS011;168;48.872;9.226;2023-08-30T10:58:38;3.43;;;3.13;;
359;SDS011;168;48.872;9.226;2023-08-30T11:01:07;4.00;;;3.60;;
359;SDS011;168;48.872;9.226;2023-08-30T11:03:39;5.40;;;3.37;;
359;SDS011;168;48.872;9.226;2023-08-30T11:06:06;4.27;;;2.97;;
359;SDS011;168;48.872;9.226;2023-08-30T11:08:34;3.37;;;3.07;;
359;SDS011;168;48.872;9.226;2023-08-30T11:11:05;4.37;;;3.57;;
359;SDS011;168;48.872;9.226;2023-08-30T11:13:36;2.70;;;2.33;;
359;SDS011;168;48.872;9.226;2023-08-30T11:16:05;5.47;;;3.47;;
359;SDS011;168;48.872;9.226;2023-08-30T11:18:36;2.97;;;2.67;;
359;SDS011;168;48.872;9.226;2023-08-30T11:21:07;2.93;;;2.63;;
359;SDS011;168;48.872;9.226;2023-08-30T11:23:38;3.53;;;3.23;;
359;SDS011;168;48.872;9.226;2023-08-30T11:26:11;3.47;;;3.17;;
359;SDS011;168;48.872;9.226;2023-08-30T11:28:39;3.73;;;3.33;;
359;SDS011;168;48.872;9.226;2023-08-30T11:31:17;3.80;;;3.23;;
359;SDS011;168;48.872;9.226;2023-08-30T11:33:53;3.03;;;2.80;;
359;SDS011;168;48.872;9.226;2023-08-30T11:36:22;4.33;;;3.40;;
359;SDS011;168;48.872;9.226;2023-08-30T11:38:50;5.17;;;3.47;;
359;SDS011;168;48.872;9.226;2023-08-30T11:41:19;4.13;;;3.73;;
359;SDS011;168;48.872;9.226;2023-08-30T11:43:47;3.60;;;3.30;;
359;SDS011;168;48.872;9.226;2023-08-30T11:46:15;3.80;;;3.50;;
359;SDS011;168;48.872;9.226;2023-08-30T11:48:44;3.57;;;3.27;;
359;SDS011;168;48.872;9.226;2023-08-30T11:51:14;4.93;;;3.40;;
359;SDS011;168;48.872;9.226;2023-08-30T11:53:45;4.40;;;4.00;;
359;SDS011;168;48.872;9.226;2023-08-30T11:56:13;4.53;;;4.17;;
359;SDS011;168;48.872;9.226;2023-08-30T11:58:42;5.30;;;4.80;;
359;SDS011;168;48.872;9.226;2023-08-30T12:01:17;5.17;;;4.77;;
359;SDS011;168;48.872;9.226;2023-08-30T12:04:00;5.53;;;5.03;;
359;SDS011;168;48.872;9.226;2023-08-30T12:06:43;5.83;;;5.30;;
359;SDS011;168;48.872;9.226;2023-08-30T12:09:37;5.57;;;5.07;;
359;SDS011;168;48.872;9.226;2023-08-30T12:12:28;5.87;;;5.00;;
359;SDS011;168;48.872;9.226;2023-08-30T12:14:55;6.73;;;6.13;;
359;SDS011;168;48.872;9.226;2023-08-30T12:17:26;5.97;;;5.47;;
359;SDS011;168;48.872;9.226;2023-08-30T12:19:58;7.07;;;5.10;;
359;SDS011;168;48.872;9.226;2023-08-30T12:22:36;7.03;;;5.57;;
359;SDS011;168;48.872;9.226;2023-08-30T12:25:14;6.33;;;5.73;;
359;SDS011;168;48.872;9.226;2023-08-30T12:27:43;6.43;;;5.93;;
359;SDS011;168;48.872;9.226;2023-08-30T12:30:11;6.77;;;6.10;;
359;SDS011;168;48.872;9.226;2023-08-30T12:32:38;6.63;;;6.10;;
359;SDS011;168;48.872;9.226;2023-08-30T12:35:06;6.80;;;6.30;;
359;SDS011;168;48.872;9.226;2023-08-30T12:37:34;8.67;;;7.97;;
359;SDS011;168;48.872;9.226;2023-08-30T12:40:06;7.90;;;6.87;;
359;SDS011;168;48.872;9.226;2023-08-30T12:42:35;7.40;;;6.70;;
359;SDS011;168;48.872;9.226;2023-08-30T12:45:03;6.97;;;6.47;;
359;SDS011;168;48.872;9.226;2023-08-30T12:47:33;7.60;;;6.80;;
359;SDS011;168;48.872;9.226;2023-08-30T12:50:01;5.17;;;4.67;;
359;SDS011;168;48.872;9.226;2023-08-30T12:52:28;5.50;;;5.00;;
359;SDS011;168;48.872;9.226;2023-08-30T12:54:56;5.73;;;5.23;;
359;SDS011;168;48.872;9.226;2023-08-30T12:57:25;5.67;;;5.17;;
359;SDS011;168;48.872;9.226;2023-08-30T12:59:53;4.67;;;4.27;;
359;SDS011;168;48.872;9.226;2023-08-30T13:02:21;4.93;;;4.43;;
359;SDS011;168;48.872;9.226;2023-08-30T13:04:56;3.70;;;3.40;;
359;SDS011;168;48.872;9.226;2023-08-30T13:07:27;5.27;;;3.50;;
359;SDS011;168;48.872;9.226;2023-08-30T13:09:54;3.97;;;3.57;;
359;SDS011;168;48.872;9.226;2023-08-30T13:12:22;4.37;;;3.97;;
359;SDS011;168;48.872;9.226;2023-08-30T13:14:51;6.50;;;3.70;;
359;SDS011;168;48.872;9.226;2023-08-30T13:17:18;3.40;;;3.10;;
359;SDS011;168;48.872;9.226;2023-08-30T13:19:46;4.40;;;2.97;;
359;SDS011;168;48.872;9.226;2023-08-30T13:22:14;5.47;;;3.60;;
359;SDS011;168;48.872;9.226;2023-08-30T13:24:42;3.87;;;2.87;;
359;SDS011;168;48.872;9.226;2023-08-30T13:27:09;3.80;;;3.40;;
359;SDS011;168;48.872;9.226;2023-08-30T13:29:37;3.17;;;2.87;;
359;SDS011;168;48.872;9.226;2023-08-30T13:32:06;4.30;;;3.83;;
359;SDS011;168;48.872;9.226;2023-08-30T13:34:34;3.40;;;3.10;;
359;SDS011;168;48.872;9.226;2023-08-30T13:37:02;3.20;;;2.90;;
359;SDS011;168;48.872;9.226;2023-08-30T13:39:30;3.30;;;2.20;;
359;SDS011;168;48.872;9.226;2023-08-30T13:41:58;2.90;;;2.60;;
359;SDS011;168;48.872;9.226;2023-08-30T13:44:25;2.67;;;2.47;;
359;SDS011;168;48.872;9.226;2023-08-30T13:46:52;3.27;;;2.97;;
359;SDS011;168;48.872;9.226;2023-08-30T13:49:21;3.67;;;2.83;;
359;SDS011;168;48.872;9.226;2023-08-30T13:51:49;3.20;;;2.80;;
359;SDS011;168;48.872;9.226;2023-08-30T13:54:16;3.03;;;2.73;;
359;SDS011;168;48.872;9.226;2023-08-30T13:56:43;2.67;;;2.47;;
359;SDS011;168;48.872;9.226;2023-08-30T13:59:11;3.17;;;2.60;;
359;SDS011;168;48.872;9.226;2023-08-30T14:01:38;3.13;;;2.23;;
359;SDS011;168;48.872;9.226;2023-08-30T14:04:06;3.10;;;2.80;;
359;SDS011;168;48.872;9.226;2023-08-30T14:06:35;3.40;;;3.10;;
359;SDS011;168;48.872;9.226;2023-08-30T14:09:03;5.17;;;3.27;;
359;SDS011;168;48.872;9.226;2023-08-30T14:11:33;3.00;;;2.80;;
359;SDS011;168;48.872;9.226;2023-08-30T14:14:03;2.80;;;2.50;;
359;SDS011;168;48.872;9.226;2023-08-30T14:16:31;4.40;;;3.40;;
359;SDS011;168;48.872;9.226;2023-08-30T14:18:58;3.10;;;2.80;;
359;SDS011;168;48.872;9.226;2023-08-30T14:21:26;2.70;;;2.50;;
359;SDS011;168;48.872;9.226;2023-08-30T14:23:56;3.60;;;2.80;;
359;SDS011;168;48.872;9.226;2023-08-30T14:26:23;2.77;;;2.57;;
359;SDS011;168;48.872;9.226;2023-08-30T14:28:50;2.90;;;2.60;;
359;SDS011;168;48.872;9.226;2023-08-30T14:31:18;4.60;;;3.90;;
359;SDS011;168;48.872;9.226;2023-08-30T14:33:45;2.77;;;2.57;;
359;SDS011;168;48.872;9.226;2023-08-30T14:36:13;3.70;;;2.50;;
359;SDS011;168;48.872;9.226;2023-08-30T14:38:43;2.73;;;2.47;;
359;SDS011;168;48.872;9.226;2023-08-30T14:41:12;3.20;;;2.80;;
359;SDS011;168;48.872;9.226;2023-08-30T14:43:41;2.63;;;2.20;;
359;SDS011;168;48.872;9.226;2023-08-30T14:46:09;3.60;;;2.60;;
359;SDS011;168;48.872;9.226;2023-08-30T14:48:45;3.80;;;2.97;;
359;SDS011;168;48.872;9.226;2023-08-30T14:51:13;2.70;;;2.50;;
359;SDS011;168;48.872;9.226;2023-08-30T14:53:40;3.73;;;3.37;;
359;SDS011;168;48.872;9.226;2023-08-30T14:56:07;4.80;;;2.97;;
359;SDS011;168;48.872;9.226;2023-08-30T14:58:38;3.77;;;3.40;;
359;SDS011;168;48.872;9.226;2023-08-30T15:01:05;3.93;;;3.50;;
359;SDS011;168;48.872;9.226;2023-08-30T15:03:33;3.67;;;3.37;;
359;SDS011;168;48.872;9.226;2023-08-30T15:06:00;3.63;;;3.30;;
359;SDS011;168;48.872;9.226;2023-08-30T15:08:28;3.40;;;3.10;;
359;SDS011;168;48.872;9.226;2023-08-30T15:10:56;5.00;;;3.40;;
359;SDS011;168;48.872;9.226;2023-08-30T15:13:24;3.17;;;2.80;;
359;SDS011;168;48.872;9.226;2023-08-30T15:15:55;3.47;;;3.17;;
359;SDS011;168;48.872;9.226;2023-08-30T15:18:22;3.33;;;3.03;;
359;SDS011;168;48.872;9.226;2023-08-30T15:20:51;4.10;;;3.40;;
359;SDS011;168;48.872;9.226;2023-08-30T15:23:19;4.00;;;2.87;;
359;SDS011;168;48.872;9.226;2023-08-30T15:25:47;3.50;;;3.20;;
359;SDS011;168;48.872;9.226;2023-08-30T15:28:15;4.33;;;3.20;;
359;SDS011;168;48.872;9.226;2023-08-30T15:30:46;4.37;;;3.20;;
359;SDS011;168;48.872;9.226;2023-08-30T15:33:17;3.53;;;3.00;;
359;SDS011;168;48.872;9.226;2023-08-30T15:35:45;2.93;;;2.40;;
359;SDS011;168;48.872;9.226;2023-08-30T15:38:12;3.47;;;3.03;;
359;SDS011;168;48.872;9.226;2023-08-30T15:40:41;3.70;;;3.30;;
359;SDS011;168;48.872;9.226;2023-08-30T15:43:09;3.57;;;3.27;;
359;SDS011;168;48.872;9.226;2023-08-30T15:45:36;3.30;;;3.00;;
359;SDS011;168;48.872;9.226;2023-08-30T15:48:04;5.00;;;3.80;;
359;SDS011;168;48.872;9.226;2023-08-30T15:50:33;6.90;;;3.33;;
359;SDS011;168;48.872;9.226;2023-08-30T15:53:01;4.00;;;3.47;;
359;SDS011;168;48.872;9.226;2023-08-30T15:55:28;5.43;;;3.50;;
359;SDS011;168;48.872;9.226;2023-08-30T15:57:56;5.10;;;4.00;;
359;SDS011;168;48.872;9.226;2023-08-30T16:00:24;4.17;;;3.40;;
359;SDS011;168;48.872;9.226;2023-08-30T16:02:51;4.03;;;3.20;;
359;SDS011;168;48.872;9.226;2023-08-30T16:05:18;4.90;;;2.80;;
359;SDS011;168;48.872;9.226;2023-08-30T16:07:47;4.07;;;3.20;;
359;SDS011;168;48.872;9.226;2023-08-30T16:10:15;3.23;;;2.93;;
359;SDS011;168;48.872;9.226;2023-08-30T16:12:42;3.40;;;2.90;;
359;SDS011;168;48.872;9.226;2023-08-30T16:15:10;3.13;;;2.83;;
359;SDS011;168;48.872;9.226;2023-08-30T16:17:38;3.53;;;2.80;;
359;SDS011;168;48.872;9.226;2023-08-30T16:20:05;3.50;;;2.70;;
359;SDS011;168;48.872;9.226;2023-08-30T16:22:34;3.07;;;2.77;;
359;SDS011;168;48.872;9.226;2023-08-30T16:25:03;3.40;;;3.10;;
359;SDS011;168;48.872;9.226;2023-08-30T16:27:32;6.53;;;3.03;;
359;SDS011;168;48.872;9.226;2023-08-30T16:30:03;4.10;;;3.23;;
359;SDS011;168;48.872;9.226;2023-08-30T16:32:31;3.50;;;2.77;;
359;SDS011;168;48.872;9.226;2023-08-30T16:35:00;3.70;;;3.30;;
359;SDS011;168;48.872;9.226;2023-08-30T16:37:27;4.10;;;3.70;;
359;SDS011;168;48.872;9.226;2023-08-30T16:39:55;4.40;;;3.00;;
359;SDS011;168;48.872;9.226;2023-08-30T16:42:24;4.23;;;3.43;;
359;SDS011;168;48.872;9.226;2023-08-30T16:44:51;3.30;;;2.97;;
359;SDS011;168;48.872;9.226;2023-08-30T16:47:18;3.77;;;3.37;;
359;SDS011;168;48.872;9.226;2023-08-30T16:49:46;2.70;;;2.50;;
359;SDS011;168;48.872;9.226;2023-08-30T16:52:13;3.50;;;3.20;;
359;SDS011;168;48.872;9.226;2023-08-30T16:54:42;3.20;;;2.90;;
359;SDS011;168;48.872;9.226;2023-08-30T16:57:11;3.83;;;3.43;;
359;SDS011;168;48.872;9.226;2023-08-30T16:59:39;3.07;;;2.77;;